sensor_id;sensor_type;location;lat;lon;timestamp;P1;durP1;ratioP1;P2;durP2;ratioP2
59856;SDS011;45733;52.668;6.860;2024-03-25T00:02:09;1.42;;;1.38;;
59856;SDS011;45733;52.668;6.860;2024-03-25T00:04:34;1.30;;;1.30;;
59856;SDS011;45733;52.668;6.860;2024-03-25T00:07:00;1.27;;;1.27;;
59856;SDS011;45733;52.668;6.860;2024-03-25T00:09:27;1.20;;;1.20;;
59856;SDS011;45733;52.668;6.860;2024-03-25T00:11:53;1.15;;;1.15;;
59856;SDS011;45733;52.668;6.860;2024-03-25T00:14:22;1.10;;;1.10;;
59856;SDS011;45733;52.668;6.860;2024-03-25T00:16:48;1.10;;;1.10;;
59856;SDS011;45733;52.668;6.860;2024-03-25T00:19:14;1.00;;;1.00;;
59856;SDS011;45733;52.668;6.860;2024-03-25T00:21:40;1.00;;;1.00;;
59856;SDS011;45733;52.668;6.860;2024-03-25T00:24:07;1.00;;;1.00;;
59856;SDS011;45733;52.668;6.860;2024-03-25T00:26:33;1.00;;;1.00;;
59856;SDS011;45733;52.668;6.860;2024-03-25T00:29:00;1.00;;;1.00;;
59856;SDS011;45733;52.668;6.860;2024-03-25T00:31:25;1.00;;;1.00;;
59856;SDS011;45733;52.668;6.860;2024-03-25T00:33:51;1.00;;;1.00;;
59856;SDS011;45733;52.668;6.860;2024-03-25T00:36:16;1.00;;;1.00;;
59856;SDS011;45733;52.668;6.860;2024-03-25T00:38:42;1.00;;;1.00;;
59856;SDS011;45733;52.668;6.860;2024-03-25T00:41:08;1.00;;;1.00;;
59856;SDS011;45733;52.668;6.860;2024-03-25T00:43:37;1.00;;;1.00;;
59856;SDS011;45733;52.668;6.860;2024-03-25T00:46:03;1.00;;;1.00;;
59856;SDS011;45733;52.668;6.860;2024-03-25T00:48:29;1.00;;;1.00;;
59856;SDS011;45733;52.668;6.860;2024-03-25T00:50:54;1.00;;;1.00;;
59856;SDS011;45733;52.668;6.860;2024-03-25T00:53:20;1.10;;;1.10;;
59856;SDS011;45733;52.668;6.860;2024-03-25T00:55:47;1.02;;;1.02;;
59856;SDS011;45733;52.668;6.860;2024-03-25T00:58:12;0.95;;;0.95;;
59856;SDS011;45733;52.668;6.860;2024-03-25T01:00:38;1.00;;;1.00;;
59856;SDS011;45733;52.668;6.860;2024-03-25T01:03:04;1.00;;;1.00;;
59856;SDS011;45733;52.668;6.860;2024-03-25T01:05:29;1.00;;;1.00;;
59856;SDS011;45733;52.668;6.860;2024-03-25T01:07:55;0.90;;;0.90;;
59856;SDS011;45733;52.668;6.860;2024-03-25T01:10:21;0.80;;;0.80;;
59856;SDS011;45733;52.668;6.860;2024-03-25T01:12:46;0.90;;;0.90;;
59856;SDS011;45733;52.668;6.860;2024-03-25T01:15:12;0.90;;;0.90;;
59856;SDS011;45733;52.668;6.860;2024-03-25T01:17:38;0.80;;;0.80;;
59856;SDS011;45733;52.668;6.860;2024-03-25T01:20:03;0.80;;;0.80;;
59856;SDS011;45733;52.668;6.860;2024-03-25T01:22:30;0.80;;;0.80;;
59856;SDS011;45733;52.668;6.860;2024-03-25T01:24:56;0.80;;;0.80;;
59856;SDS011;45733;52.668;6.860;2024-03-25T01:27:22;0.80;;;0.80;;
59856;SDS011;45733;52.668;6.860;2024-03-25T01:29:48;0.80;;;0.80;;
59856;SDS011;45733;52.668;6.860;2024-03-25T01:32:14;0.70;;;0.70;;
59856;SDS011;45733;52.668;6.860;2024-03-25T01:34:39;0.80;;;0.80;;
59856;SDS011;45733;52.668;6.860;2024-03-25T01:37:05;0.80;;;0.80;;
59856;SDS011;45733;52.668;6.860;2024-03-25T01:39:31;0.77;;;0.77;;
59856;SDS011;45733;52.668;6.860;2024-03-25T01:41:56;0.80;;;0.80;;
59856;SDS011;45733;52.668;6.860;2024-03-25T01:44:22;0.80;;;0.80;;
59856;SDS011;45733;52.668;6.860;2024-03-25T01:46:48;0.80;;;0.80;;
59856;SDS011;45733;52.668;6.860;2024-03-25T01:49:14;0.80;;;0.80;;
59856;SDS011;45733;52.668;6.860;2024-03-25T01:51:40;0.90;;;0.90;;
59856;SDS011;45733;52.668;6.860;2024-03-25T01:54:06;0.80;;;0.80;;
59856;SDS011;45733;52.668;6.860;2024-03-25T01:56:33;0.80;;;0.80;;
59856;SDS011;45733;52.668;6.860;2024-03-25T01:59:01;0.80;;;0.80;;
59856;SDS011;45733;52.668;6.860;2024-03-25T02:01:31;0.90;;;0.90;;
59856;SDS011;45733;52.668;6.860;2024-03-25T02:03:57;0.90;;;0.90;;
59856;SDS011;45733;52.668;6.860;2024-03-25T02:06:23;0.88;;;0.88;;
59856;SDS011;45733;52.668;6.860;2024-03-25T02:08:53;0.90;;;0.90;;
59856;SDS011;45733;52.668;6.860;2024-03-25T02:11:20;0.90;;;0.90;;
59856;SDS011;45733;52.668;6.860;2024-03-25T02:13:47;0.90;;;0.90;;
59856;SDS011;45733;52.668;6.860;2024-03-25T02:16:14;0.90;;;0.90;;
59856;SDS011;45733;52.668;6.860;2024-03-25T02:18:40;0.90;;;0.90;;
59856;SDS011;45733;52.668;6.860;2024-03-25T02:21:06;0.90;;;0.90;;
59856;SDS011;45733;52.668;6.860;2024-03-25T02:23:31;0.90;;;0.90;;
59856;SDS011;45733;52.668;6.860;2024-03-25T02:25:59;0.90;;;0.90;;
59856;SDS011;45733;52.668;6.860;2024-03-25T02:28:25;0.90;;;0.90;;
59856;SDS011;45733;52.668;6.860;2024-03-25T02:30:50;0.80;;;0.80;;
59856;SDS011;45733;52.668;6.860;2024-03-25T02:33:16;0.90;;;0.90;;
59856;SDS011;45733;52.668;6.860;2024-03-25T02:35:42;0.80;;;0.80;;
59856;SDS011;45733;52.668;6.860;2024-03-25T02:38:09;0.80;;;0.80;;
59856;SDS011;45733;52.668;6.860;2024-03-25T02:40:35;0.80;;;0.80;;
59856;SDS011;45733;52.668;6.860;2024-03-25T02:43:02;0.80;;;0.80;;
59856;SDS011;45733;52.668;6.860;2024-03-25T02:45:28;0.80;;;0.80;;
59856;SDS011;45733;52.668;6.860;2024-03-25T02:47:54;0.80;;;0.80;;
59856;SDS011;45733;52.668;6.860;2024-03-25T02:50:20;0.80;;;0.80;;
59856;SDS011;45733;52.668;6.860;2024-03-25T02:52:46;0.80;;;0.80;;
59856;SDS011;45733;52.668;6.860;2024-03-25T02:55:11;0.80;;;0.80;;
59856;SDS011;45733;52.668;6.860;2024-03-25T02:57:37;0.80;;;0.80;;
59856;SDS011;45733;52.668;6.860;2024-03-25T03:00:03;0.88;;;0.88;;
59856;SDS011;45733;52.668;6.860;2024-03-25T03:02:29;0.80;;;0.80;;
59856;SDS011;45733;52.668;6.860;2024-03-25T03:04:55;0.80;;;0.80;;
59856;SDS011;45733;52.668;6.860;2024-03-25T03:07:20;0.80;;;0.80;;
59856;SDS011;45733;52.668;6.860;2024-03-25T03:09:46;0.80;;;0.80;;
59856;SDS011;45733;52.668;6.860;2024-03-25T03:12:12;0.80;;;0.80;;
59856;SDS011;45733;52.668;6.860;2024-03-25T03:14:37;0.80;;;0.80;;
59856;SDS011;45733;52.668;6.860;2024-03-25T03:17:03;0.90;;;0.90;;
59856;SDS011;45733;52.668;6.860;2024-03-25T03:19:30;0.80;;;0.80;;
59856;SDS011;45733;52.668;6.860;2024-03-25T03:21:56;0.80;;;0.80;;
59856;SDS011;45733;52.668;6.860;2024-03-25T03:24:22;0.80;;;0.80;;
59856;SDS011;45733;52.668;6.860;2024-03-25T03:26:48;0.80;;;0.80;;
59856;SDS011;45733;52.668;6.860;2024-03-25T03:29:14;0.80;;;0.80;;
59856;SDS011;45733;52.668;6.860;2024-03-25T03:31:39;0.80;;;0.80;;
59856;SDS011;45733;52.668;6.860;2024-03-25T03:34:05;0.80;;;0.80;;
59856;SDS011;45733;52.668;6.860;2024-03-25T03:36:31;0.80;;;0.80;;
59856;SDS011;45733;52.668;6.860;2024-03-25T03:38:56;0.80;;;0.80;;
59856;SDS011;45733;52.668;6.860;2024-03-25T03:41:22;0.80;;;0.80;;
59856;SDS011;45733;52.668;6.860;2024-03-25T03:43:48;0.80;;;0.80;;
59856;SDS011;45733;52.668;6.860;2024-03-25T03:46:13;0.90;;;0.90;;
59856;SDS011;45733;52.668;6.860;2024-03-25T03:48:39;0.80;;;0.80;;
59856;SDS011;45733;52.668;6.860;2024-03-25T03:51:05;0.80;;;0.80;;
59856;SDS011;45733;52.668;6.860;2024-03-25T03:53:31;0.80;;;0.80;;
59856;SDS011;45733;52.668;6.860;2024-03-25T03:56:01;0.80;;;0.80;;
59856;SDS011;45733;52.668;6.860;2024-03-25T03:58:31;0.90;;;0.90;;
59856;SDS011;45733;52.668;6.860;2024-03-25T04:00:58;0.90;;;0.90;;
59856;SDS011;45733;52.668;6.860;2024-03-25T04:03:24;0.80;;;0.80;;
59856;SDS011;45733;52.668;6.860;2024-03-25T04:05:50;0.90;;;0.90;;
59856;SDS011;45733;52.668;6.860;2024-03-25T04:08:16;0.80;;;0.80;;
59856;SDS011;45733;52.668;6.860;2024-03-25T04:10:42;0.90;;;0.90;;
59856;SDS011;45733;52.668;6.860;2024-03-25T04:13:09;0.80;;;0.80;;
59856;SDS011;45733;52.668;6.860;2024-03-25T04:15:35;0.90;;;0.90;;
59856;SDS011;45733;52.668;6.860;2024-03-25T04:18:02;0.80;;;0.80;;
59856;SDS011;45733;52.668;6.860;2024-03-25T04:20:28;0.90;;;0.90;;
59856;SDS011;45733;52.668;6.860;2024-03-25T04:22:54;0.90;;;0.90;;
59856;SDS011;45733;52.668;6.860;2024-03-25T04:25:21;0.90;;;0.90;;
59856;SDS011;45733;52.668;6.860;2024-03-25T04:27:47;0.80;;;0.80;;
59856;SDS011;45733;52.668;6.860;2024-03-25T04:30:13;0.80;;;0.80;;
59856;SDS011;45733;52.668;6.860;2024-03-25T04:32:40;0.80;;;0.80;;
59856;SDS011;45733;52.668;6.860;2024-03-25T04:35:06;0.80;;;0.80;;
59856;SDS011;45733;52.668;6.860;2024-03-25T04:37:33;0.80;;;0.80;;
59856;SDS011;45733;52.668;6.860;2024-03-25T04:39:59;0.80;;;0.80;;
59856;SDS011;45733;52.668;6.860;2024-03-25T04:42:25;0.90;;;0.90;;
59856;SDS011;45733;52.668;6.860;2024-03-25T04:44:51;0.88;;;0.88;;
59856;SDS011;45733;52.668;6.860;2024-03-25T04:47:17;0.90;;;0.90;;
59856;SDS011;45733;52.668;6.860;2024-03-25T04:49:43;0.90;;;0.90;;
59856;SDS011;45733;52.668;6.860;2024-03-25T04:52:09;0.90;;;0.90;;
59856;SDS011;45733;52.668;6.860;2024-03-25T04:54:38;0.90;;;0.90;;
59856;SDS011;45733;52.668;6.860;2024-03-25T04:57:04;0.80;;;0.80;;
59856;SDS011;45733;52.668;6.860;2024-03-25T04:59:31;0.90;;;0.90;;
59856;SDS011;45733;52.668;6.860;2024-03-25T05:01:57;0.82;;;0.82;;
59856;SDS011;45733;52.668;6.860;2024-03-25T05:04:23;0.90;;;0.90;;
59856;SDS011;45733;52.668;6.860;2024-03-25T05:06:49;0.90;;;0.90;;
59856;SDS011;45733;52.668;6.860;2024-03-25T05:09:15;0.80;;;0.80;;
59856;SDS011;45733;52.668;6.860;2024-03-25T05:11:41;0.80;;;0.80;;
59856;SDS011;45733;52.668;6.860;2024-03-25T05:14:07;0.80;;;0.80;;
59856;SDS011;45733;52.668;6.860;2024-03-25T05:16:33;0.80;;;0.80;;
59856;SDS011;45733;52.668;6.860;2024-03-25T05:18:59;0.90;;;0.90;;
59856;SDS011;45733;52.668;6.860;2024-03-25T05:21:24;0.80;;;0.80;;
59856;SDS011;45733;52.668;6.860;2024-03-25T05:23:50;0.70;;;0.70;;
59856;SDS011;45733;52.668;6.860;2024-03-25T05:26:16;0.80;;;0.80;;
59856;SDS011;45733;52.668;6.860;2024-03-25T05:28:41;0.80;;;0.80;;
59856;SDS011;45733;52.668;6.860;2024-03-25T05:31:07;0.80;;;0.80;;
59856;SDS011;45733;52.668;6.860;2024-03-25T05:33:33;0.80;;;0.80;;
59856;SDS011;45733;52.668;6.860;2024-03-25T05:35:59;0.80;;;0.80;;
59856;SDS011;45733;52.668;6.860;2024-03-25T05:38:25;0.80;;;0.80;;
59856;SDS011;45733;52.668;6.860;2024-03-25T05:40:51;0.80;;;0.80;;
59856;SDS011;45733;52.668;6.860;2024-03-25T05:43:17;0.80;;;0.80;;
59856;SDS011;45733;52.668;6.860;2024-03-25T05:45:52;0.80;;;0.80;;
59856;SDS011;45733;52.668;6.860;2024-03-25T05:48:19;0.75;;;0.75;;
59856;SDS011;45733;52.668;6.860;2024-03-25T05:50:45;0.75;;;0.75;;
59856;SDS011;45733;52.668;6.860;2024-03-25T05:53:11;0.80;;;0.80;;
59856;SDS011;45733;52.668;6.860;2024-03-25T05:55:37;0.80;;;0.80;;
59856;SDS011;45733;52.668;6.860;2024-03-25T05:58:03;0.80;;;0.80;;
59856;SDS011;45733;52.668;6.860;2024-03-25T06:00:29;0.80;;;0.80;;
59856;SDS011;45733;52.668;6.860;2024-03-25T06:02:56;0.80;;;0.80;;
59856;SDS011;45733;52.668;6.860;2024-03-25T06:05:22;0.88;;;0.88;;
59856;SDS011;45733;52.668;6.860;2024-03-25T06:07:47;0.80;;;0.80;;
59856;SDS011;45733;52.668;6.860;2024-03-25T06:10:13;0.80;;;0.80;;
59856;SDS011;45733;52.668;6.860;2024-03-25T06:12:38;0.80;;;0.80;;
59856;SDS011;45733;52.668;6.860;2024-03-25T06:15:04;0.80;;;0.80;;
59856;SDS011;45733;52.668;6.860;2024-03-25T06:17:31;0.80;;;0.80;;
59856;SDS011;45733;52.668;6.860;2024-03-25T06:19:57;0.80;;;0.80;;
59856;SDS011;45733;52.668;6.860;2024-03-25T06:22:22;0.85;;;0.85;;
59856;SDS011;45733;52.668;6.860;2024-03-25T06:24:48;0.90;;;0.90;;
59856;SDS011;45733;52.668;6.860;2024-03-25T06:27:15;0.90;;;0.90;;
59856;SDS011;45733;52.668;6.860;2024-03-25T06:29:41;0.90;;;0.90;;
59856;SDS011;45733;52.668;6.860;2024-03-25T06:32:08;1.00;;;1.00;;
59856;SDS011;45733;52.668;6.860;2024-03-25T06:34:52;1.00;;;1.00;;
59856;SDS011;45733;52.668;6.860;2024-03-25T06:37:18;1.00;;;1.00;;
59856;SDS011;45733;52.668;6.860;2024-03-25T06:39:44;1.10;;;1.10;;
59856;SDS011;45733;52.668;6.860;2024-03-25T06:42:09;1.30;;;1.30;;
59856;SDS011;45733;52.668;6.860;2024-03-25T06:44:35;1.30;;;1.30;;
59856;SDS011;45733;52.668;6.860;2024-03-25T06:47:01;1.60;;;1.50;;
59856;SDS011;45733;52.668;6.860;2024-03-25T06:49:27;1.67;;;1.58;;
59856;SDS011;45733;52.668;6.860;2024-03-25T06:51:53;1.90;;;1.80;;
59856;SDS011;45733;52.668;6.860;2024-03-25T06:54:18;1.90;;;1.80;;
59856;SDS011;45733;52.668;6.860;2024-03-25T06:56:44;1.90;;;1.80;;
59856;SDS011;45733;52.668;6.860;2024-03-25T06:59:09;1.90;;;1.80;;
59856;SDS011;45733;52.668;6.860;2024-03-25T07:01:35;1.90;;;1.80;;
59856;SDS011;45733;52.668;6.860;2024-03-25T07:04:01;2.00;;;1.90;;
59856;SDS011;45733;52.668;6.860;2024-03-25T07:06:28;2.20;;;2.10;;
59856;SDS011;45733;52.668;6.860;2024-03-25T07:08:53;2.33;;;2.22;;
59856;SDS011;45733;52.668;6.860;2024-03-25T07:11:20;2.45;;;2.35;;
59856;SDS011;45733;52.668;6.860;2024-03-25T07:13:45;2.60;;;2.50;;
59856;SDS011;45733;52.668;6.860;2024-03-25T07:16:11;2.50;;;2.40;;
59856;SDS011;45733;52.668;6.860;2024-03-25T07:18:36;2.63;;;2.53;;
59856;SDS011;45733;52.668;6.860;2024-03-25T07:21:02;2.85;;;2.65;;
59856;SDS011;45733;52.668;6.860;2024-03-25T07:23:28;2.50;;;2.40;;
59856;SDS011;45733;52.668;6.860;2024-03-25T07:25:54;2.30;;;2.20;;
59856;SDS011;45733;52.668;6.860;2024-03-25T07:28:20;2.15;;;2.05;;
59856;SDS011;45733;52.668;6.860;2024-03-25T07:30:45;1.90;;;1.80;;
59856;SDS011;45733;52.668;6.860;2024-03-25T07:33:12;1.90;;;1.80;;
59856;SDS011;45733;52.668;6.860;2024-03-25T07:35:37;2.00;;;1.90;;
59856;SDS011;45733;52.668;6.860;2024-03-25T07:38:03;1.90;;;1.80;;
59856;SDS011;45733;52.668;6.860;2024-03-25T07:40:29;1.70;;;1.60;;
59856;SDS011;45733;52.668;6.860;2024-03-25T07:42:54;2.00;;;1.90;;
59856;SDS011;45733;52.668;6.860;2024-03-25T07:45:21;1.80;;;1.70;;
59856;SDS011;45733;52.668;6.860;2024-03-25T07:47:47;1.90;;;1.80;;
59856;SDS011;45733;52.668;6.860;2024-03-25T07:50:12;1.80;;;1.70;;
59856;SDS011;45733;52.668;6.860;2024-03-25T07:52:38;1.70;;;1.60;;
59856;SDS011;45733;52.668;6.860;2024-03-25T07:55:09;1.77;;;1.67;;
59856;SDS011;45733;52.668;6.860;2024-03-25T07:57:35;1.73;;;1.63;;
59856;SDS011;45733;52.668;6.860;2024-03-25T08:00:02;1.80;;;1.70;;
59856;SDS011;45733;52.668;6.860;2024-03-25T08:02:30;1.80;;;1.70;;
59856;SDS011;45733;52.668;6.860;2024-03-25T08:04:56;1.75;;;1.65;;
59856;SDS011;45733;52.668;6.860;2024-03-25T08:07:21;3.47;;;3.28;;
59856;SDS011;45733;52.668;6.860;2024-03-25T08:09:47;3.35;;;3.15;;
59856;SDS011;45733;52.668;6.860;2024-03-25T08:12:12;2.83;;;2.65;;
59856;SDS011;45733;52.668;6.860;2024-03-25T08:14:38;3.70;;;3.50;;
59856;SDS011;45733;52.668;6.860;2024-03-25T08:17:04;3.65;;;3.45;;
59856;SDS011;45733;52.668;6.860;2024-03-25T08:19:29;3.00;;;2.80;;
59856;SDS011;45733;52.668;6.860;2024-03-25T08:21:56;2.50;;;2.40;;
59856;SDS011;45733;52.668;6.860;2024-03-25T08:24:22;2.38;;;2.28;;
59856;SDS011;45733;52.668;6.860;2024-03-25T08:26:48;2.25;;;2.15;;
59856;SDS011;45733;52.668;6.860;2024-03-25T08:29:14;2.05;;;1.95;;
59856;SDS011;45733;52.668;6.860;2024-03-25T08:31:39;1.75;;;1.65;;
59856;SDS011;45733;52.668;6.860;2024-03-25T08:34:05;1.63;;;1.52;;
59856;SDS011;45733;52.668;6.860;2024-03-25T08:36:32;1.80;;;1.70;;
59856;SDS011;45733;52.668;6.860;2024-03-25T08:38:57;1.85;;;1.75;;
59856;SDS011;45733;52.668;6.860;2024-03-25T08:41:23;1.40;;;1.35;;
59856;SDS011;45733;52.668;6.860;2024-03-25T08:43:49;1.77;;;1.67;;
59856;SDS011;45733;52.668;6.860;2024-03-25T08:46:14;1.85;;;1.75;;
59856;SDS011;45733;52.668;6.860;2024-03-25T08:48:40;1.90;;;1.80;;
59856;SDS011;45733;52.668;6.860;2024-03-25T08:51:05;1.98;;;1.88;;
59856;SDS011;45733;52.668;6.860;2024-03-25T08:53:32;1.92;;;1.83;;
59856;SDS011;45733;52.668;6.860;2024-03-25T08:55:58;1.85;;;1.75;;
59856;SDS011;45733;52.668;6.860;2024-03-25T08:58:23;1.83;;;1.73;;
59856;SDS011;45733;52.668;6.860;2024-03-25T09:00:49;1.70;;;1.60;;
59856;SDS011;45733;52.668;6.860;2024-03-25T09:03:14;1.70;;;1.60;;
59856;SDS011;45733;52.668;6.860;2024-03-25T09:05:40;1.80;;;1.70;;
59856;SDS011;45733;52.668;6.860;2024-03-25T09:08:06;1.75;;;1.65;;
59856;SDS011;45733;52.668;6.860;2024-03-25T09:10:32;1.63;;;1.52;;
59856;SDS011;45733;52.668;6.860;2024-03-25T09:13:16;1.58;;;1.48;;
59856;SDS011;45733;52.668;6.860;2024-03-25T09:15:42;1.70;;;1.60;;
59856;SDS011;45733;52.668;6.860;2024-03-25T09:18:07;1.67;;;1.58;;
59856;SDS011;45733;52.668;6.860;2024-03-25T09:20:33;1.77;;;1.67;;
59856;SDS011;45733;52.668;6.860;2024-03-25T09:22:59;1.63;;;1.52;;
59856;SDS011;45733;52.668;6.860;2024-03-25T09:25:24;1.77;;;1.67;;
59856;SDS011;45733;52.668;6.860;2024-03-25T09:27:50;1.90;;;1.80;;
59856;SDS011;45733;52.668;6.860;2024-03-25T09:30:17;2.17;;;2.08;;
59856;SDS011;45733;52.668;6.860;2024-03-25T09:32:44;2.55;;;2.45;;
59856;SDS011;45733;52.668;6.860;2024-03-25T09:35:10;2.45;;;2.35;;
59856;SDS011;45733;52.668;6.860;2024-03-25T09:37:36;2.25;;;2.15;;
59856;SDS011;45733;52.668;6.860;2024-03-25T09:40:03;2.60;;;2.50;;
59856;SDS011;45733;52.668;6.860;2024-03-25T09:42:36;3.17;;;2.97;;
59856;SDS011;45733;52.668;6.860;2024-03-25T09:45:20;3.33;;;3.13;;
59856;SDS011;45733;52.668;6.860;2024-03-25T09:47:50;3.58;;;3.38;;
59856;SDS011;45733;52.668;6.860;2024-03-25T09:50:16;3.45;;;3.25;;
59856;SDS011;45733;52.668;6.860;2024-03-25T09:52:49;3.92;;;3.70;;
59856;SDS011;45733;52.668;6.860;2024-03-25T09:55:15;3.53;;;3.33;;
59856;SDS011;45733;52.668;6.860;2024-03-25T09:57:44;3.08;;;2.88;;
59856;SDS011;45733;52.668;6.860;2024-03-25T10:00:10;2.38;;;2.28;;
59856;SDS011;45733;52.668;6.860;2024-03-25T10:02:38;2.83;;;2.65;;
59856;SDS011;45733;52.668;6.860;2024-03-25T10:05:05;3.20;;;3.00;;
59856;SDS011;45733;52.668;6.860;2024-03-25T10:07:32;2.85;;;2.65;;
59856;SDS011;45733;52.668;6.860;2024-03-25T10:09:58;2.58;;;2.45;;
59856;SDS011;45733;52.668;6.860;2024-03-25T10:12:24;1.83;;;1.73;;
59856;SDS011;45733;52.668;6.860;2024-03-25T10:14:50;1.83;;;1.73;;
59856;SDS011;45733;52.668;6.860;2024-03-25T10:17:15;1.83;;;1.73;;
59856;SDS011;45733;52.668;6.860;2024-03-25T10:19:41;1.80;;;1.70;;
59856;SDS011;45733;52.668;6.860;2024-03-25T10:22:07;1.65;;;1.55;;
59856;SDS011;45733;52.668;6.860;2024-03-25T10:24:40;1.58;;;1.48;;
59856;SDS011;45733;52.668;6.860;2024-03-25T10:27:20;1.88;;;1.77;;
59856;SDS011;45733;52.668;6.860;2024-03-25T10:29:55;2.00;;;1.90;;
59856;SDS011;45733;52.668;6.860;2024-03-25T10:32:21;1.60;;;1.50;;
59856;SDS011;45733;52.668;6.860;2024-03-25T10:34:53;2.05;;;1.95;;
59856;SDS011;45733;52.668;6.860;2024-03-25T10:37:19;1.88;;;1.77;;
59856;SDS011;45733;52.668;6.860;2024-03-25T10:39:47;1.75;;;1.65;;
59856;SDS011;45733;52.668;6.860;2024-03-25T10:42:17;1.42;;;1.38;;
59856;SDS011;45733;52.668;6.860;2024-03-25T10:44:44;1.58;;;1.48;;
59856;SDS011;45733;52.668;6.860;2024-03-25T10:47:11;1.30;;;1.30;;
59856;SDS011;45733;52.668;6.860;2024-03-25T10:52:26;1.20;;;1.20;;
59856;SDS011;45733;52.668;6.860;2024-03-25T10:54:54;1.17;;;1.17;;
59856;SDS011;45733;52.668;6.860;2024-03-25T10:57:21;1.20;;;1.20;;
59856;SDS011;45733;52.668;6.860;2024-03-25T10:59:47;1.48;;;1.42;;
59856;SDS011;45733;52.668;6.860;2024-03-25T11:02:14;1.33;;;1.30;;
59856;SDS011;45733;52.668;6.860;2024-03-25T11:04:42;1.38;;;1.33;;
59856;SDS011;45733;52.668;6.860;2024-03-25T11:07:10;1.20;;;1.20;;
59856;SDS011;45733;52.668;6.860;2024-03-25T11:09:40;1.25;;;1.25;;
59856;SDS011;45733;52.668;6.860;2024-03-25T11:12:07;1.42;;;1.38;;
59856;SDS011;45733;52.668;6.860;2024-03-25T11:14:35;1.40;;;1.38;;
59856;SDS011;45733;52.668;6.860;2024-03-25T11:17:01;1.40;;;1.35;;
59856;SDS011;45733;52.668;6.860;2024-03-25T11:19:28;1.55;;;1.48;;
59856;SDS011;45733;52.668;6.860;2024-03-25T11:21:55;1.85;;;1.75;;
59856;SDS011;45733;52.668;6.860;2024-03-25T11:24:32;1.63;;;1.52;;
59856;SDS011;45733;52.668;6.860;2024-03-25T11:27:01;1.75;;;1.65;;
59856;SDS011;45733;52.668;6.860;2024-03-25T11:29:28;1.65;;;1.55;;
59856;SDS011;45733;52.668;6.860;2024-03-25T11:31:55;1.75;;;1.65;;
59856;SDS011;45733;52.668;6.860;2024-03-25T11:34:23;2.10;;;2.00;;
59856;SDS011;45733;52.668;6.860;2024-03-25T11:36:49;2.17;;;2.08;;
59856;SDS011;45733;52.668;6.860;2024-03-25T11:39:16;2.22;;;2.13;;
59856;SDS011;45733;52.668;6.860;2024-03-25T11:41:43;2.40;;;2.30;;
59856;SDS011;45733;52.668;6.860;2024-03-25T11:44:10;2.05;;;1.95;;
59856;SDS011;45733;52.668;6.860;2024-03-25T11:46:40;1.75;;;1.65;;
59856;SDS011;45733;52.668;6.860;2024-03-25T11:49:12;1.75;;;1.65;;
59856;SDS011;45733;52.668;6.860;2024-03-25T11:51:43;1.88;;;1.77;;
59856;SDS011;45733;52.668;6.860;2024-03-25T11:54:11;1.77;;;1.67;;
59856;SDS011;45733;52.668;6.860;2024-03-25T11:56:37;2.00;;;1.90;;
59856;SDS011;45733;52.668;6.860;2024-03-25T11:59:03;1.98;;;1.88;;
59856;SDS011;45733;52.668;6.860;2024-03-25T12:01:29;2.03;;;1.92;;
59856;SDS011;45733;52.668;6.860;2024-03-25T12:03:56;2.25;;;2.15;;
59856;SDS011;45733;52.668;6.860;2024-03-25T12:06:21;2.05;;;1.95;;
59856;SDS011;45733;52.668;6.860;2024-03-25T12:08:47;1.83;;;1.73;;
59856;SDS011;45733;52.668;6.860;2024-03-25T12:11:33;1.65;;;1.55;;
59856;SDS011;45733;52.668;6.860;2024-03-25T12:14:00;1.65;;;1.55;;
59856;SDS011;45733;52.668;6.860;2024-03-25T12:16:26;2.05;;;1.95;;
59856;SDS011;45733;52.668;6.860;2024-03-25T12:18:52;2.25;;;2.15;;
59856;SDS011;45733;52.668;6.860;2024-03-25T12:21:18;1.83;;;1.73;;
59856;SDS011;45733;52.668;6.860;2024-03-25T12:23:44;1.67;;;1.58;;
59856;SDS011;45733;52.668;6.860;2024-03-25T12:26:12;1.65;;;1.55;;
59856;SDS011;45733;52.668;6.860;2024-03-25T12:28:39;1.75;;;1.65;;
59856;SDS011;45733;52.668;6.860;2024-03-25T12:31:08;1.73;;;1.63;;
59856;SDS011;45733;52.668;6.860;2024-03-25T12:33:43;2.00;;;1.90;;
59856;SDS011;45733;52.668;6.860;2024-03-25T12:36:11;2.05;;;1.95;;
59856;SDS011;45733;52.668;6.860;2024-03-25T12:38:37;2.05;;;1.95;;
59856;SDS011;45733;52.668;6.860;2024-03-25T12:41:10;1.85;;;1.75;;
59856;SDS011;45733;52.668;6.860;2024-03-25T12:43:41;2.20;;;2.10;;
59856;SDS011;45733;52.668;6.860;2024-03-25T12:46:07;1.77;;;1.67;;
59856;SDS011;45733;52.668;6.860;2024-03-25T12:48:36;1.98;;;1.88;;
59856;SDS011;45733;52.668;6.860;2024-03-25T12:51:02;2.05;;;1.95;;
59856;SDS011;45733;52.668;6.860;2024-03-25T12:53:28;2.35;;;2.25;;
59856;SDS011;45733;52.668;6.860;2024-03-25T12:55:54;2.28;;;2.17;;
59856;SDS011;45733;52.668;6.860;2024-03-25T12:58:19;2.40;;;2.30;;
59856;SDS011;45733;52.668;6.860;2024-03-25T13:00:45;2.45;;;2.35;;
59856;SDS011;45733;52.668;6.860;2024-03-25T13:03:11;2.42;;;2.33;;
59856;SDS011;45733;52.668;6.860;2024-03-25T13:05:38;2.40;;;2.30;;
59856;SDS011;45733;52.668;6.860;2024-03-25T13:08:03;2.50;;;2.40;;
59856;SDS011;45733;52.668;6.860;2024-03-25T13:10:29;2.42;;;2.33;;
59856;SDS011;45733;52.668;6.860;2024-03-25T13:12:56;2.35;;;2.25;;
59856;SDS011;45733;52.668;6.860;2024-03-25T13:15:22;2.65;;;2.53;;
59856;SDS011;45733;52.668;6.860;2024-03-25T13:17:47;2.80;;;2.65;;
59856;SDS011;45733;52.668;6.860;2024-03-25T13:20:13;2.58;;;2.45;;
59856;SDS011;45733;52.668;6.860;2024-03-25T13:22:39;2.53;;;2.42;;
59856;SDS011;45733;52.668;6.860;2024-03-25T13:25:05;2.55;;;2.42;;
59856;SDS011;45733;52.668;6.860;2024-03-25T13:27:32;2.70;;;2.55;;
59856;SDS011;45733;52.668;6.860;2024-03-25T13:29:58;2.70;;;2.55;;
59856;SDS011;45733;52.668;6.860;2024-03-25T13:32:23;2.65;;;2.53;;
59856;SDS011;45733;52.668;6.860;2024-03-25T13:34:50;2.47;;;2.38;;
59856;SDS011;45733;52.668;6.860;2024-03-25T13:37:16;2.60;;;2.47;;
59856;SDS011;45733;52.668;6.860;2024-03-25T13:39:41;2.53;;;2.42;;
59856;SDS011;45733;52.668;6.860;2024-03-25T13:42:07;2.28;;;2.17;;
59856;SDS011;45733;52.668;6.860;2024-03-25T13:44:32;2.05;;;1.95;;
59856;SDS011;45733;52.668;6.860;2024-03-25T13:46:58;1.98;;;1.88;;
59856;SDS011;45733;52.668;6.860;2024-03-25T13:49:24;1.75;;;1.65;;
59856;SDS011;45733;52.668;6.860;2024-03-25T13:51:56;1.65;;;1.55;;
59856;SDS011;45733;52.668;6.860;2024-03-25T13:54:23;1.65;;;1.55;;
59856;SDS011;45733;52.668;6.860;2024-03-25T13:56:52;1.52;;;1.45;;
59856;SDS011;45733;52.668;6.860;2024-03-25T13:59:18;1.52;;;1.45;;
59856;SDS011;45733;52.668;6.860;2024-03-25T14:01:44;1.40;;;1.35;;
59856;SDS011;45733;52.668;6.860;2024-03-25T14:04:10;1.38;;;1.35;;
59856;SDS011;45733;52.668;6.860;2024-03-25T14:06:36;1.40;;;1.35;;
59856;SDS011;45733;52.668;6.860;2024-03-25T14:09:05;1.30;;;1.27;;
59856;SDS011;45733;52.668;6.860;2024-03-25T14:11:33;1.65;;;1.55;;
59856;SDS011;45733;52.668;6.860;2024-03-25T14:14:00;1.40;;;1.35;;
59856;SDS011;45733;52.668;6.860;2024-03-25T14:16:26;1.52;;;1.45;;
59856;SDS011;45733;52.668;6.860;2024-03-25T14:18:52;1.75;;;1.65;;
59856;SDS011;45733;52.668;6.860;2024-03-25T14:21:18;2.40;;;2.30;;
59856;SDS011;45733;52.668;6.860;2024-03-25T14:23:44;3.33;;;3.13;;
59856;SDS011;45733;52.668;6.860;2024-03-25T14:26:11;3.72;;;3.50;;
59856;SDS011;45733;52.668;6.860;2024-03-25T14:28:37;3.60;;;3.38;;
59856;SDS011;45733;52.668;6.860;2024-03-25T14:31:03;3.13;;;2.92;;
59856;SDS011;45733;52.668;6.860;2024-03-25T14:33:29;3.15;;;2.95;;
59856;SDS011;45733;52.668;6.860;2024-03-25T14:35:54;2.85;;;2.70;;
59856;SDS011;45733;52.668;6.860;2024-03-25T14:38:21;2.88;;;2.70;;
59856;SDS011;45733;52.668;6.860;2024-03-25T14:40:46;2.90;;;2.72;;
59856;SDS011;45733;52.668;6.860;2024-03-25T14:43:12;2.80;;;2.63;;
59856;SDS011;45733;52.668;6.860;2024-03-25T14:45:38;2.88;;;2.70;;
59856;SDS011;45733;52.668;6.860;2024-03-25T14:48:04;2.70;;;2.55;;